createdAt,value
2022-11-02T00:00:33.273Z,53.29
2022-11-02T00:03:00.184Z,53.33
2022-11-02T00:05:27.316Z,52.72
2022-11-02T00:07:55.086Z,53.66
2022-11-02T00:10:22.834Z,52.90
2022-11-02T00:12:49.928Z,53.33
2022-11-02T00:15:17.625Z,52.48
2022-11-02T00:17:47.925Z,51.82
2022-11-02T00:20:16.866Z,51.92
2022-11-02T00:22:44.816Z,52.26
2022-11-02T00:25:14.609Z,52.66
2022-11-02T00:27:43.092Z,53.01
2022-11-02T00:30:10.497Z,52.91
2022-11-02T00:32:37.108Z,53.24
2022-11-02T00:35:03.841Z,53.18
2022-11-02T00:37:30.555Z,53.80
2022-11-02T00:39:57.187Z,53.59
2022-11-02T00:42:23.946Z,54.11
2022-11-02T00:44:50.711Z,55.13
2022-11-02T00:47:19.386Z,55.30
2022-11-02T00:49:46.173Z,55.50
2022-11-02T00:52:13.147Z,54.46
2022-11-02T00:54:40.140Z,55.58
2022-11-02T00:57:06.871Z,55.87
2022-11-02T00:59:33.506Z,56.44
2022-11-02T01:02:00.227Z,55.74
2022-11-02T01:04:27.853Z,55.04
2022-11-02T01:06:54.747Z,55.13
2022-11-02T01:09:21.799Z,55.41
2022-11-02T01:11:48.487Z,54.99
2022-11-02T01:14:15.189Z,54.73
2022-11-02T01:16:41.894Z,53.60
2022-11-02T01:19:08.661Z,54.18
2022-11-02T01:21:35.289Z,54.24
2022-11-02T01:24:02.159Z,54.51
2022-11-02T01:26:31.066Z,53.95
2022-11-02T01:28:57.722Z,54.14
2022-11-02T01:31:24.349Z,54.40
2022-11-02T01:33:51.115Z,54.56
2022-11-02T01:38:54.981Z,53.44
2022-11-02T01:41:22.404Z,54.12
2022-11-02T01:43:54.381Z,54.38
2022-11-02T01:46:28.928Z,55.55
2022-11-02T01:49:01.188Z,56.33
2022-11-02T01:51:33.270Z,56.74
2022-11-02T01:54:05.422Z,57.19
2022-11-02T01:56:33.848Z,55.79
2022-11-02T01:59:10.147Z,55.91
2022-11-02T02:01:37.285Z,56.08
2022-11-02T02:04:05.181Z,55.93
2022-11-02T02:06:38.041Z,55.85
2022-11-02T02:09:07.793Z,56.33
2022-11-02T02:11:37.236Z,56.46
2022-11-02T02:14:19.605Z,55.70
2022-11-02T02:17:08.704Z,56.79
2022-11-02T02:19:50.681Z,56.52
2022-11-02T02:22:29.727Z,56.34
2022-11-02T02:25:19.672Z,55.91
2022-11-02T02:28:04.283Z,56.13
2022-11-02T02:30:40.431Z,55.32
2022-11-02T02:33:35.879Z,56.41
2022-11-02T02:36:20.877Z,56.25
2022-11-02T02:39:01.262Z,54.97
2022-11-02T02:41:43.412Z,54.84
2022-11-02T02:44:23.038Z,54.47
2022-11-02T02:46:59.135Z,54.42
2022-11-02T02:49:44.675Z,54.84
2022-11-02T02:52:13.077Z,54.86
2022-11-02T02:54:45.365Z,54.52
2022-11-02T02:57:19.118Z,54.01
2022-11-02T02:59:50.716Z,55.30
2022-11-02T03:02:27.461Z,55.33
2022-11-02T03:04:54.508Z,55.15
2022-11-02T03:07:29.663Z,55.29
2022-11-02T03:10:28.197Z,54.79
2022-11-02T03:13:18.299Z,55.45
2022-11-02T03:15:51.195Z,56.03
2022-11-02T03:18:44.140Z,55.31
2022-11-02T03:21:39.964Z,55.00
2022-11-02T03:24:18.482Z,55.82
2022-11-02T03:27:03.222Z,55.80
2022-11-02T03:29:41.961Z,55.44
2022-11-02T03:32:20.866Z,55.80
2022-11-02T03:34:50.287Z,54.54
2022-11-02T03:37:22.861Z,55.59
2022-11-02T03:39:58.779Z,55.85
2022-11-02T03:42:28.138Z,55.78
2022-11-02T03:45:01.141Z,56.20
2022-11-02T03:47:33.248Z,55.19
2022-11-02T03:50:08.245Z,55.37
2022-11-02T03:52:40.017Z,55.75
2022-11-02T03:55:20.673Z,55.42
2022-11-02T03:57:50.327Z,55.30
2022-11-02T04:00:25.848Z,56.01
2022-11-02T04:03:00.010Z,55.33
2022-11-02T04:05:35.028Z,56.36
2022-11-02T04:08:22.497Z,56.25
2022-11-02T04:11:12.082Z,56.30
2022-11-02T04:13:58.974Z,55.76
2022-11-02T04:16:28.567Z,54.42
2022-11-02T04:19:16.575Z,55.66
2022-11-02T04:22:04.270Z,54.92
2022-11-02T04:24:51.672Z,54.57
2022-11-02T04:27:21.239Z,55.26
2022-11-02T04:29:49.685Z,55.19
2022-11-02T04:32:40.453Z,54.62
2022-11-02T04:35:12.193Z,55.03
2022-11-02T04:38:02.623Z,54.66
2022-11-02T04:40:34.669Z,54.55
2022-11-02T04:43:03.664Z,54.08
2022-11-02T04:45:31.212Z,55.99
2022-11-02T04:48:06.810Z,55.95
2022-11-02T04:50:34.870Z,55.62
2022-11-02T04:53:02.598Z,55.48
2022-11-02T04:55:31.274Z,55.42
2022-11-02T04:57:58.841Z,55.76
2022-11-02T05:00:25.505Z,55.93
2022-11-02T05:02:53.473Z,55.78
2022-11-02T05:05:22.236Z,55.96
2022-11-02T05:07:51.523Z,56.59
2022-11-02T05:10:18.596Z,56.75
2022-11-02T05:12:47.275Z,57.07
2022-11-02T05:15:14.348Z,57.28
2022-11-02T05:17:41.052Z,56.98
2022-11-02T05:20:09.357Z,56.22
2022-11-02T05:22:35.978Z,57.01
2022-11-02T05:25:02.677Z,56.87
2022-11-02T05:27:30.326Z,57.48
2022-11-02T05:29:56.996Z,57.83
2022-11-02T05:32:23.695Z,57.47
2022-11-02T05:34:50.418Z,57.12
2022-11-02T05:37:16.990Z,57.46
2022-11-02T05:39:46.352Z,58.04
2022-11-02T05:42:16.320Z,57.23
2022-11-02T05:44:43.133Z,57.37
2022-11-02T05:47:09.863Z,57.47
2022-11-02T05:49:36.422Z,58.25
2022-11-02T05:52:03.149Z,58.34
2022-11-02T05:54:29.788Z,57.46
2022-11-02T05:56:57.234Z,57.70
2022-11-02T05:59:23.870Z,58.23
2022-11-02T06:01:50.620Z,58.32
2022-11-02T06:04:17.340Z,57.46
2022-11-02T06:06:44.075Z,57.11
2022-11-02T06:09:10.662Z,56.93
2022-11-02T06:11:37.332Z,57.47
2022-11-02T06:14:04.070Z,57.20
2022-11-02T06:16:31.414Z,56.80
2022-11-02T06:18:58.045Z,57.52
2022-11-02T06:21:24.721Z,57.81
2022-11-02T06:23:51.360Z,57.18
2022-11-02T06:26:18.165Z,56.34
2022-11-02T06:28:44.730Z,57.43
2022-11-02T06:31:12.719Z,57.62
2022-11-02T06:33:39.426Z,58.65
2022-11-02T06:36:06.487Z,57.60
2022-11-02T06:38:33.073Z,58.63
2022-11-02T06:41:03.929Z,57.83
2022-11-02T06:43:31.294Z,58.18
2022-11-02T06:45:58.438Z,57.34
2022-11-02T06:48:31.518Z,57.46
2022-11-02T06:51:02.089Z,57.16
2022-11-02T06:53:28.825Z,56.71
2022-11-02T06:55:56.983Z,56.67
2022-11-02T06:58:24.925Z,56.70
2022-11-02T07:01:01.215Z,57.51
2022-11-02T07:03:28.815Z,57.10
2022-11-02T07:05:55.515Z,57.19
2022-11-02T07:08:22.939Z,57.42
2022-11-02T07:10:49.728Z,57.83
2022-11-02T07:13:16.778Z,57.54
2022-11-02T07:15:43.708Z,56.51
2022-11-02T07:18:12.639Z,54.81
2022-11-02T07:20:39.255Z,54.60
2022-11-02T07:23:06.262Z,54.76
2022-11-02T07:25:33.623Z,53.85
2022-11-02T07:28:01.861Z,52.41
2022-11-02T07:30:29.944Z,48.18
2022-11-02T07:32:57.178Z,45.90
2022-11-02T07:35:53.642Z,46.95
2022-11-02T07:38:20.281Z,43.96
2022-11-02T07:40:49.472Z,41.77
2022-11-02T07:43:16.137Z,42.19
2022-11-02T07:45:56.946Z,42.13
2022-11-02T07:48:23.580Z,43.21
2022-11-02T07:50:50.167Z,46.08
2022-11-02T07:53:16.825Z,48.47
2022-11-02T07:55:43.502Z,50.09
2022-11-02T07:58:13.767Z,50.46
2022-11-02T08:00:41.541Z,52.48
2022-11-02T08:03:10.246Z,54.55
2022-11-02T08:05:39.520Z,54.70
2022-11-02T08:08:09.185Z,54.57
2022-11-02T08:10:39.200Z,55.74
2022-11-02T08:13:12.335Z,55.06
2022-11-02T08:15:39.324Z,55.47
2022-11-02T08:18:20.921Z,56.07
2022-11-02T08:20:48.805Z,56.29
2022-11-02T08:23:19.366Z,56.25
2022-11-02T08:25:48.025Z,55.70
2022-11-02T08:28:21.194Z,55.85
2022-11-02T08:30:47.955Z,55.59
2022-11-02T08:33:16.738Z,54.67
2022-11-02T08:35:45.228Z,55.97
2022-11-02T08:38:12.330Z,55.00
2022-11-02T08:40:39.354Z,54.73
2022-11-02T08:43:08.276Z,54.26
2022-11-02T08:46:08.404Z,54.85
2022-11-02T08:48:23.494Z,54.86
2022-11-02T08:50:50.225Z,54.80
2022-11-02T08:53:17.214Z,54.96
2022-11-02T08:55:43.807Z,53.94
2022-11-02T08:58:11.305Z,55.07
2022-11-02T09:00:37.809Z,54.17
2022-11-02T09:03:05.838Z,54.01
2022-11-02T09:05:53.569Z,54.60
2022-11-02T09:08:20.811Z,54.90
2022-11-02T09:10:50.334Z,54.24
2022-11-02T09:13:25.226Z,55.35
2022-11-02T09:15:54.805Z,54.91
2022-11-02T09:18:22.142Z,54.34
2022-11-02T09:20:49.840Z,54.01
2022-11-02T09:23:17.997Z,54.27
2022-11-02T09:25:44.776Z,53.32
2022-11-02T09:28:11.626Z,52.31
2022-11-02T09:30:38.710Z,52.58
2022-11-02T09:33:06.755Z,52.72
2022-11-02T09:35:36.584Z,52.76
2022-11-02T09:38:05.278Z,52.86
2022-11-02T09:40:50.654Z,53.10
2022-11-02T09:43:35.194Z,54.08
2022-11-02T09:46:08.237Z,53.70
2022-11-02T09:48:46.352Z,53.48
2022-11-02T09:51:27.035Z,53.42
2022-11-02T09:54:08.050Z,53.89
2022-11-02T09:56:37.130Z,53.89
2022-11-02T09:59:27.435Z,52.49
2022-11-02T10:02:03.240Z,52.07
2022-11-02T10:04:38.963Z,54.04
2022-11-02T10:07:14.510Z,53.79
2022-11-02T10:09:48.618Z,53.42
2022-11-02T10:12:26.879Z,52.87
2022-11-02T10:15:02.286Z,51.84
2022-11-02T10:17:34.302Z,52.53
2022-11-02T10:20:07.673Z,52.16
2022-11-02T10:22:40.439Z,50.54
2022-11-02T10:25:08.411Z,48.63
2022-11-02T10:27:38.743Z,46.34
2022-11-02T10:30:16.266Z,45.38
2022-11-02T10:32:44.872Z,45.11
2022-11-02T10:35:57.580Z,45.81
2022-11-02T10:38:52.454Z,45.33
2022-11-02T10:41:56.569Z,46.38
2022-11-02T10:44:56.524Z,46.72
2022-11-02T10:47:29.448Z,47.23
2022-11-02T10:50:18.435Z,46.15
2022-11-02T10:52:46.629Z,46.90
2022-11-02T10:55:42.464Z,45.21
2022-11-02T10:58:15.878Z,46.77
2022-11-02T11:00:43.022Z,46.30
2022-11-02T11:03:13.429Z,46.63
2022-11-02T11:06:01.949Z,45.67
2022-11-02T11:08:42.182Z,42.94
2022-11-02T11:11:22.313Z,42.41
2022-11-02T11:16:54.002Z,40.66
2022-11-02T11:22:45.259Z,39.44
2022-11-02T11:25:28.372Z,40.12
2022-11-02T11:27:57.465Z,39.54
2022-11-02T11:30:59.677Z,39.16
2022-11-02T11:33:21.539Z,40.09
2022-11-02T11:35:50.814Z,38.87
2022-11-02T11:38:21.248Z,39.33
2022-11-02T11:40:55.043Z,38.49
2022-11-02T11:43:26.109Z,38.02
2022-11-02T11:46:02.110Z,38.14
2022-11-02T11:48:50.370Z,37.58
2022-11-02T11:51:31.878Z,37.81
2022-11-02T11:54:17.832Z,37.73
2022-11-02T11:56:44.607Z,36.27
2022-11-02T11:59:26.727Z,35.55
2022-11-02T12:01:57.379Z,34.35
2022-11-02T12:04:35.950Z,33.25
2022-11-02T12:07:02.493Z,34.12
2022-11-02T12:09:48.225Z,36.08
2022-11-02T12:12:31.605Z,36.75
2022-11-02T12:15:26.192Z,37.43
2022-11-02T12:18:05.000Z,38.16
2022-11-02T12:20:50.203Z,38.61
2022-11-02T12:23:19.524Z,38.32
2022-11-02T12:26:27.550Z,37.96
2022-11-02T12:29:12.349Z,37.54
2022-11-02T12:31:42.345Z,37.33
2022-11-02T12:34:53.125Z,36.87
2022-11-02T12:37:40.997Z,37.83
2022-11-02T12:40:39.102Z,38.23
2022-11-02T12:43:24.304Z,39.11
2022-11-02T12:46:03.392Z,38.46
2022-11-02T12:48:39.228Z,38.49
2022-11-02T12:51:19.470Z,39.61
2022-11-02T12:53:52.383Z,40.44
2022-11-02T12:56:34.680Z,40.23
2022-11-02T12:59:01.782Z,40.12
2022-11-02T13:01:36.069Z,40.09
2022-11-02T13:04:05.951Z,38.80
2022-11-02T13:06:44.480Z,38.90
2022-11-02T13:09:19.231Z,38.85
2022-11-02T13:11:52.301Z,39.35
2022-11-02T13:14:21.013Z,41.00
2022-11-02T13:16:55.895Z,41.58
2022-11-02T13:19:36.972Z,42.02
2022-11-02T13:22:05.022Z,41.25
2022-11-02T13:24:38.502Z,41.45
2022-11-02T13:27:33.519Z,41.66
2022-11-02T13:30:04.344Z,42.18
2022-11-02T13:32:40.902Z,41.94
2022-11-02T13:35:32.933Z,39.91
2022-11-02T13:38:37.213Z,38.94
2022-11-02T13:41:40.798Z,38.78
2022-11-02T13:44:42.002Z,38.54
2022-11-02T13:47:26.946Z,38.38
2022-11-02T13:49:56.346Z,38.53
2022-11-02T13:52:43.167Z,38.92
2022-11-02T13:55:27.556Z,38.43
2022-11-02T13:57:58.082Z,39.67
2022-11-02T14:00:24.636Z,40.82
2022-11-02T14:02:56.572Z,41.22
2022-11-02T14:05:32.687Z,42.40
2022-11-02T14:08:03.608Z,43.13
2022-11-02T14:10:38.933Z,41.75
2022-11-02T14:13:06.038Z,41.61
2022-11-02T14:15:32.677Z,41.51
2022-11-02T14:18:15.249Z,41.62
2022-11-02T14:20:47.083Z,43.19
2022-11-02T14:23:18.581Z,42.62
2022-11-02T14:25:45.130Z,43.70
2022-11-02T14:28:42.331Z,43.78
2022-11-02T14:31:18.313Z,43.77
2022-11-02T14:33:51.314Z,44.34
2022-11-02T14:36:17.969Z,44.12
2022-11-02T14:39:06.339Z,44.77
2022-11-02T14:41:54.424Z,44.55
2022-11-02T14:44:23.928Z,44.54
2022-11-02T14:46:57.121Z,44.62
2022-11-02T14:49:29.618Z,45.00
2022-11-02T14:52:08.107Z,44.32
2022-11-02T14:54:59.347Z,44.21
2022-11-02T14:57:36.877Z,44.74
2022-11-02T15:00:37.155Z,45.03
2022-11-02T15:03:29.120Z,45.26
2022-11-02T15:06:11.011Z,45.49
2022-11-02T15:08:54.998Z,45.50
2022-11-02T15:11:48.593Z,44.73
2022-11-02T15:14:33.723Z,45.39
2022-11-02T15:17:01.138Z,45.25
2022-11-02T15:19:39.438Z,44.77
2022-11-02T15:22:43.768Z,45.21
2022-11-02T15:25:13.117Z,44.74
2022-11-02T15:27:42.480Z,44.68
2022-11-02T15:30:17.201Z,44.76
2022-11-02T15:32:48.532Z,45.15
2022-11-02T15:35:21.741Z,45.55
2022-11-02T15:38:15.761Z,45.44
2022-11-02T15:40:49.280Z,45.16
2022-11-02T15:43:34.477Z,45.06
2022-11-02T15:46:20.083Z,44.32
2022-11-02T15:49:30.354Z,44.86
2022-11-02T15:52:21.617Z,44.57
2022-11-02T15:55:03.363Z,44.24
2022-11-02T15:57:55.024Z,43.98
2022-11-02T16:00:41.288Z,43.71
2022-11-02T16:03:10.560Z,43.86
2022-11-02T16:05:48.378Z,43.67
2022-11-02T16:08:24.231Z,44.00
2022-11-02T16:10:51.282Z,44.49
2022-11-02T16:13:22.055Z,44.59
2022-11-02T16:15:49.791Z,44.63
2022-11-02T16:18:28.151Z,44.77
2022-11-02T16:21:02.382Z,44.53
2022-11-02T16:23:32.424Z,45.09
2022-11-02T16:26:02.966Z,45.52
2022-11-02T16:28:32.490Z,45.56
2022-11-02T16:31:14.436Z,45.90
2022-11-02T16:33:53.095Z,45.74
2022-11-02T16:36:24.728Z,46.12
2022-11-02T16:38:58.911Z,45.57
2022-11-02T16:41:28.106Z,46.11
2022-11-02T16:43:57.289Z,45.74
2022-11-02T16:46:52.731Z,46.36
2022-11-02T16:49:54.035Z,47.93
2022-11-02T16:52:29.139Z,48.44
2022-11-02T16:54:55.791Z,49.08
2022-11-02T16:57:27.953Z,50.29
2022-11-02T16:59:56.907Z,51.97
2022-11-02T17:02:32.427Z,52.31
2022-11-02T17:05:04.395Z,51.86
2022-11-02T17:07:38.779Z,52.19
2022-11-02T17:10:06.487Z,50.86
2022-11-02T17:12:36.912Z,50.98
2022-11-02T17:15:19.803Z,51.07
2022-11-02T17:17:47.180Z,50.51
2022-11-02T17:20:16.573Z,50.29
2022-11-02T17:22:52.414Z,49.76
2022-11-02T17:25:20.957Z,50.96
2022-11-02T17:27:48.331Z,49.94
2022-11-02T17:30:30.483Z,49.83
2022-11-02T17:33:29.642Z,50.34
2022-11-02T17:36:07.955Z,50.17
2022-11-02T17:38:35.134Z,50.65
2022-11-02T17:41:02.150Z,51.21
2022-11-02T17:43:28.860Z,53.25
2022-11-02T17:45:57.919Z,52.80
2022-11-02T17:48:25.631Z,52.69
2022-11-02T17:50:53.650Z,53.20
2022-11-02T17:53:20.536Z,52.58
2022-11-02T17:55:47.161Z,51.52
2022-11-02T17:58:14.742Z,51.50
2022-11-02T18:00:41.494Z,51.09
2022-11-02T18:03:15.089Z,51.79
2022-11-02T18:05:43.754Z,52.04
2022-11-02T18:08:13.670Z,52.74
2022-11-02T18:10:42.750Z,53.24
2022-11-02T18:13:17.655Z,53.74
2022-11-02T18:15:45.156Z,53.81
2022-11-02T18:18:12.280Z,53.40
2022-11-02T18:20:41.773Z,53.45
2022-11-02T18:23:15.639Z,53.27
2022-11-02T18:25:42.562Z,53.18
2022-11-02T18:28:09.260Z,52.40
2022-11-02T18:30:35.985Z,53.67
2022-11-02T18:33:02.942Z,53.45
2022-11-02T18:35:29.808Z,53.11
2022-11-02T18:37:56.767Z,53.53
2022-11-02T18:40:23.487Z,54.75
2022-11-02T18:42:50.194Z,54.61
2022-11-02T18:45:17.068Z,54.65
2022-11-02T18:47:43.941Z,54.82
2022-11-02T18:50:12.937Z,54.85
2022-11-02T18:52:41.930Z,55.04
2022-11-02T18:55:08.640Z,53.59
2022-11-02T18:57:35.264Z,54.19
2022-11-02T19:00:03.001Z,55.38
2022-11-02T19:02:30.049Z,55.67
2022-11-02T19:05:52.331Z,54.99
2022-11-02T19:08:37.639Z,54.64
2022-11-02T19:11:04.455Z,53.66
2022-11-02T19:13:31.060Z,53.47
2022-11-02T19:15:57.716Z,52.99
2022-11-02T19:18:24.358Z,52.68
2022-11-02T19:20:50.953Z,52.08
2022-11-02T19:23:17.541Z,51.82
2022-11-02T19:25:50.406Z,51.98
2022-11-02T19:28:17.150Z,52.43
2022-11-02T19:30:43.711Z,52.37
2022-11-02T19:33:10.398Z,53.67
2022-11-02T19:35:36.956Z,53.24
2022-11-02T19:38:03.637Z,54.33
2022-11-02T19:40:30.231Z,52.80
2022-11-02T19:42:56.858Z,53.08
2022-11-02T19:45:23.425Z,53.39
2022-11-02T19:47:50.498Z,54.91
2022-11-02T19:50:17.182Z,54.62
2022-11-02T19:52:46.308Z,55.57
2022-11-02T19:55:12.920Z,54.46
2022-11-02T19:57:39.599Z,55.21
2022-11-02T20:00:06.801Z,55.06
2022-11-02T20:02:35.679Z,55.16
2022-11-02T20:05:02.273Z,53.93
2022-11-02T20:07:28.955Z,53.60
2022-11-02T20:09:58.698Z,55.64
2022-11-02T20:12:26.509Z,55.91
2022-11-02T20:14:53.145Z,54.65
2022-11-02T20:17:51.957Z,54.56
2022-11-02T20:20:07.401Z,56.27
2022-11-02T20:22:35.254Z,54.99
2022-11-02T20:25:01.904Z,54.88
2022-11-02T20:27:28.481Z,53.59
2022-11-02T20:29:55.145Z,54.08
2022-11-02T20:32:22.390Z,53.87
2022-11-02T20:34:49.051Z,54.13
2022-11-02T20:37:15.668Z,53.75
2022-11-02T20:39:42.284Z,53.92
2022-11-02T20:42:11.007Z,53.88
2022-11-02T20:44:37.663Z,55.05
2022-11-02T20:47:04.282Z,54.94
2022-11-02T20:49:49.977Z,54.72
2022-11-02T20:52:18.880Z,54.27
2022-11-02T20:54:45.451Z,54.19
2022-11-02T20:57:12.075Z,53.53
2022-11-02T20:59:38.781Z,54.34
2022-11-02T21:02:05.608Z,54.09
2022-11-02T21:04:32.341Z,54.16
2022-11-02T21:06:59.014Z,54.13
2022-11-02T21:09:26.438Z,54.61
2022-11-02T21:12:11.765Z,54.49
2022-11-02T21:14:38.502Z,55.11
2022-11-02T21:17:06.095Z,54.79
2022-11-02T21:19:32.749Z,54.27
2022-11-02T21:22:00.444Z,55.33
2022-11-02T21:24:28.511Z,54.24
2022-11-02T21:26:55.141Z,54.33
2022-11-02T21:29:21.849Z,54.38
2022-11-02T21:31:48.892Z,54.60
2022-11-02T21:34:15.602Z,54.81
2022-11-02T21:36:42.167Z,54.13
2022-11-02T21:39:08.787Z,53.87
2022-11-02T21:41:38.552Z,54.85
2022-11-02T21:44:06.670Z,54.51
2022-11-02T21:46:33.394Z,53.85
2022-11-02T21:49:00.128Z,53.76
2022-11-02T21:51:27.007Z,53.42
2022-11-02T21:53:53.664Z,54.00
2022-11-02T21:56:22.930Z,53.97
2022-11-02T21:58:49.626Z,53.75
2022-11-02T22:01:34.828Z,54.27
2022-11-02T22:04:02.148Z,53.59
2022-11-02T22:06:31.433Z,53.99
2022-11-02T22:08:59.848Z,53.78
2022-11-02T22:11:27.396Z,53.64
2022-11-02T22:13:54.869Z,53.52
2022-11-02T22:16:28.177Z,54.14
2022-11-02T22:18:57.030Z,54.29
2022-11-02T22:21:25.247Z,53.87
2022-11-02T22:23:52.819Z,53.33
2022-11-02T22:26:27.666Z,55.01
2022-11-02T22:28:57.130Z,54.77
2022-11-02T22:31:26.917Z,54.36
2022-11-02T22:33:55.854Z,54.46
2022-11-02T22:36:25.683Z,54.86
2022-11-02T22:38:54.414Z,54.60
2022-11-02T22:41:34.682Z,53.75
2022-11-02T22:44:06.779Z,52.91
2022-11-02T22:46:36.388Z,54.34
2022-11-02T22:49:04.679Z,53.25
2022-11-02T22:51:35.583Z,54.34
2022-11-02T22:54:04.776Z,54.15
2022-11-02T22:56:32.112Z,54.56
2022-11-02T22:58:59.268Z,54.96
2022-11-02T23:01:28.192Z,55.12
2022-11-02T23:03:55.364Z,55.48
2022-11-02T23:06:23.383Z,54.96
2022-11-02T23:08:51.948Z,55.97
2022-11-02T23:11:22.587Z,56.58
2022-11-02T23:13:49.232Z,55.71
2022-11-02T23:16:23.883Z,55.73
2022-11-02T23:19:29.682Z,56.18
2022-11-02T23:22:25.158Z,55.76
2022-11-02T23:25:11.608Z,55.83
2022-11-02T23:27:59.616Z,56.17
2022-11-02T23:30:47.752Z,56.30
2022-11-02T23:33:15.222Z,56.67
2022-11-02T23:36:01.626Z,56.84
2022-11-02T23:38:48.603Z,57.22
2022-11-02T23:41:16.415Z,57.11
2022-11-02T23:43:43.305Z,56.99
2022-11-02T23:46:09.964Z,56.80
2022-11-02T23:48:36.527Z,56.98
2022-11-02T23:51:21.760Z,56.41
2022-11-02T23:54:06.970Z,58.30
2022-11-02T23:56:43.451Z,57.63
2022-11-02T23:59:14.642Z,57.91
